sensor_id;sensor_type;location;lat;lon;timestamp;P1;durP1;ratioP1;P2;durP2;ratioP2
57826;SDS011;43656;57.746;11.780;2023-12-29T00:02:18;55.80;;;6.65;;
57826;SDS011;43656;57.746;11.780;2023-12-29T00:04:43;60.85;;;7.32;;
57826;SDS011;43656;57.746;11.780;2023-12-29T00:07:09;65.30;;;7.20;;
57826;SDS011;43656;57.746;11.780;2023-12-29T00:09:34;55.95;;;6.68;;
57826;SDS011;43656;57.746;11.780;2023-12-29T00:12:05;52.05;;;6.40;;
57826;SDS011;43656;57.746;11.780;2023-12-29T00:14:32;54.58;;;5.43;;
57826;SDS011;43656;57.746;11.780;2023-12-29T00:16:57;54.42;;;5.32;;
57826;SDS011;43656;57.746;11.780;2023-12-29T00:19:23;50.78;;;5.55;;
57826;SDS011;43656;57.746;11.780;2023-12-29T00:21:48;47.75;;;5.47;;
57826;SDS011;43656;57.746;11.780;2023-12-29T00:24:13;50.08;;;6.07;;
57826;SDS011;43656;57.746;11.780;2023-12-29T00:26:39;41.85;;;4.97;;
57826;SDS011;43656;57.746;11.780;2023-12-29T00:29:04;53.05;;;6.53;;
57826;SDS011;43656;57.746;11.780;2023-12-29T00:31:31;37.67;;;4.90;;
57826;SDS011;43656;57.746;11.780;2023-12-29T00:33:57;39.53;;;5.15;;
57826;SDS011;43656;57.746;11.780;2023-12-29T00:36:22;36.35;;;4.18;;
57826;SDS011;43656;57.746;11.780;2023-12-29T00:38:48;33.20;;;3.72;;
57826;SDS011;43656;57.746;11.780;2023-12-29T00:41:14;33.85;;;4.97;;
57826;SDS011;43656;57.746;11.780;2023-12-29T00:43:39;26.88;;;3.70;;
57826;SDS011;43656;57.746;11.780;2023-12-29T00:46:05;40.28;;;4.90;;
57826;SDS011;43656;57.746;11.780;2023-12-29T00:48:30;31.88;;;3.95;;
57826;SDS011;43656;57.746;11.780;2023-12-29T00:50:56;42.10;;;4.78;;
57826;SDS011;43656;57.746;11.780;2023-12-29T00:53:22;31.92;;;4.25;;
57826;SDS011;43656;57.746;11.780;2023-12-29T00:55:47;43.58;;;4.90;;
57826;SDS011;43656;57.746;11.780;2023-12-29T00:58:13;42.53;;;4.40;;
57826;SDS011;43656;57.746;11.780;2023-12-29T01:00:39;40.58;;;4.47;;
57826;SDS011;43656;57.746;11.780;2023-12-29T01:03:04;32.63;;;4.57;;
57826;SDS011;43656;57.746;11.780;2023-12-29T01:05:31;37.28;;;4.82;;
57826;SDS011;43656;57.746;11.780;2023-12-29T01:07:56;35.25;;;4.47;;
57826;SDS011;43656;57.746;11.780;2023-12-29T01:10:22;42.05;;;4.78;;
57826;SDS011;43656;57.746;11.780;2023-12-29T01:12:47;48.17;;;5.32;;
57826;SDS011;43656;57.746;11.780;2023-12-29T01:15:13;39.08;;;4.72;;
57826;SDS011;43656;57.746;11.780;2023-12-29T01:17:39;37.00;;;4.95;;
57826;SDS011;43656;57.746;11.780;2023-12-29T01:20:04;46.55;;;4.88;;
57826;SDS011;43656;57.746;11.780;2023-12-29T01:22:30;42.03;;;5.15;;
57826;SDS011;43656;57.746;11.780;2023-12-29T01:24:55;40.35;;;4.90;;
57826;SDS011;43656;57.746;11.780;2023-12-29T01:27:21;44.10;;;5.63;;
57826;SDS011;43656;57.746;11.780;2023-12-29T01:29:46;50.75;;;5.50;;
57826;SDS011;43656;57.746;11.780;2023-12-29T01:32:12;46.17;;;5.78;;
57826;SDS011;43656;57.746;11.780;2023-12-29T01:34:37;45.53;;;5.57;;
57826;SDS011;43656;57.746;11.780;2023-12-29T01:37:03;40.25;;;4.70;;
57826;SDS011;43656;57.746;11.780;2023-12-29T01:39:29;36.22;;;5.07;;
57826;SDS011;43656;57.746;11.780;2023-12-29T01:41:55;44.20;;;5.60;;
57826;SDS011;43656;57.746;11.780;2023-12-29T01:44:21;50.28;;;5.88;;
57826;SDS011;43656;57.746;11.780;2023-12-29T01:46:48;45.13;;;5.32;;
57826;SDS011;43656;57.746;11.780;2023-12-29T01:49:16;43.67;;;5.78;;
57826;SDS011;43656;57.746;11.780;2023-12-29T01:51:49;50.55;;;6.90;;
57826;SDS011;43656;57.746;11.780;2023-12-29T01:54:17;44.67;;;5.65;;
57826;SDS011;43656;57.746;11.780;2023-12-29T01:56:44;42.72;;;5.75;;
57826;SDS011;43656;57.746;11.780;2023-12-29T01:59:10;52.25;;;5.50;;
57826;SDS011;43656;57.746;11.780;2023-12-29T02:01:35;47.95;;;5.85;;
57826;SDS011;43656;57.746;11.780;2023-12-29T02:04:02;37.42;;;5.10;;
57826;SDS011;43656;57.746;11.780;2023-12-29T02:06:29;34.03;;;4.60;;
57826;SDS011;43656;57.746;11.780;2023-12-29T02:08:59;36.78;;;5.65;;
57826;SDS011;43656;57.746;11.780;2023-12-29T02:11:25;38.05;;;5.13;;
57826;SDS011;43656;57.746;11.780;2023-12-29T02:13:51;39.03;;;4.88;;
57826;SDS011;43656;57.746;11.780;2023-12-29T02:16:18;41.55;;;4.85;;
57826;SDS011;43656;57.746;11.780;2023-12-29T02:18:55;35.33;;;4.50;;
57826;SDS011;43656;57.746;11.780;2023-12-29T02:21:25;38.30;;;4.65;;
57826;SDS011;43656;57.746;11.780;2023-12-29T02:23:50;31.50;;;5.03;;
57826;SDS011;43656;57.746;11.780;2023-12-29T02:26:16;43.50;;;5.43;;
57826;SDS011;43656;57.746;11.780;2023-12-29T02:28:45;45.53;;;6.20;;
57826;SDS011;43656;57.746;11.780;2023-12-29T02:31:17;44.78;;;6.03;;
57826;SDS011;43656;57.746;11.780;2023-12-29T02:33:45;44.75;;;5.40;;
57826;SDS011;43656;57.746;11.780;2023-12-29T02:36:12;49.30;;;6.15;;
57826;SDS011;43656;57.746;11.780;2023-12-29T02:38:39;37.45;;;5.53;;
57826;SDS011;43656;57.746;11.780;2023-12-29T02:41:05;48.72;;;7.05;;
57826;SDS011;43656;57.746;11.780;2023-12-29T02:43:31;54.00;;;5.68;;
57826;SDS011;43656;57.746;11.780;2023-12-29T02:45:57;47.50;;;6.00;;
57826;SDS011;43656;57.746;11.780;2023-12-29T02:48:23;60.53;;;6.95;;
57826;SDS011;43656;57.746;11.780;2023-12-29T02:50:48;59.10;;;7.18;;
57826;SDS011;43656;57.746;11.780;2023-12-29T02:53:14;59.65;;;7.25;;
57826;SDS011;43656;57.746;11.780;2023-12-29T02:55:39;57.55;;;6.78;;
57826;SDS011;43656;57.746;11.780;2023-12-29T02:58:04;64.38;;;8.40;;
57826;SDS011;43656;57.746;11.780;2023-12-29T03:00:30;63.22;;;7.32;;
57826;SDS011;43656;57.746;11.780;2023-12-29T03:02:55;67.18;;;8.27;;
57826;SDS011;43656;57.746;11.780;2023-12-29T03:05:20;59.53;;;7.25;;
57826;SDS011;43656;57.746;11.780;2023-12-29T03:07:46;64.00;;;8.23;;
57826;SDS011;43656;57.746;11.780;2023-12-29T03:10:12;59.50;;;7.10;;
57826;SDS011;43656;57.746;11.780;2023-12-29T03:12:38;64.93;;;7.60;;
57826;SDS011;43656;57.746;11.780;2023-12-29T03:15:03;60.03;;;7.43;;
57826;SDS011;43656;57.746;11.780;2023-12-29T03:17:30;59.47;;;6.75;;
57826;SDS011;43656;57.746;11.780;2023-12-29T03:19:55;57.90;;;7.85;;
57826;SDS011;43656;57.746;11.780;2023-12-29T03:22:20;70.22;;;8.45;;
57826;SDS011;43656;57.746;11.780;2023-12-29T03:24:46;63.35;;;7.68;;
57826;SDS011;43656;57.746;11.780;2023-12-29T03:27:11;55.05;;;6.60;;
57826;SDS011;43656;57.746;11.780;2023-12-29T03:29:37;64.28;;;7.32;;
57826;SDS011;43656;57.746;11.780;2023-12-29T03:32:02;55.50;;;6.88;;
57826;SDS011;43656;57.746;11.780;2023-12-29T03:34:28;53.88;;;6.68;;
57826;SDS011;43656;57.746;11.780;2023-12-29T03:36:53;55.95;;;6.78;;
57826;SDS011;43656;57.746;11.780;2023-12-29T03:39:19;68.38;;;7.28;;
57826;SDS011;43656;57.746;11.780;2023-12-29T03:41:44;61.30;;;6.90;;
57826;SDS011;43656;57.746;11.780;2023-12-29T03:44:11;57.40;;;6.60;;
57826;SDS011;43656;57.746;11.780;2023-12-29T03:46:37;64.90;;;7.07;;
57826;SDS011;43656;57.746;11.780;2023-12-29T03:49:02;59.45;;;7.68;;
57826;SDS011;43656;57.746;11.780;2023-12-29T03:51:28;67.18;;;7.85;;
57826;SDS011;43656;57.746;11.780;2023-12-29T03:53:54;56.15;;;6.93;;
57826;SDS011;43656;57.746;11.780;2023-12-29T03:56:19;65.78;;;8.27;;
57826;SDS011;43656;57.746;11.780;2023-12-29T03:58:45;75.70;;;8.02;;
57826;SDS011;43656;57.746;11.780;2023-12-29T04:01:12;60.47;;;6.90;;
57826;SDS011;43656;57.746;11.780;2023-12-29T04:03:38;55.45;;;7.43;;
57826;SDS011;43656;57.746;11.780;2023-12-29T04:06:04;59.13;;;6.85;;
57826;SDS011;43656;57.746;11.780;2023-12-29T04:08:30;58.30;;;6.47;;
57826;SDS011;43656;57.746;11.780;2023-12-29T04:10:56;71.25;;;8.25;;
57826;SDS011;43656;57.746;11.780;2023-12-29T04:13:21;65.18;;;6.93;;
57826;SDS011;43656;57.746;11.780;2023-12-29T04:15:46;60.40;;;7.30;;
57826;SDS011;43656;57.746;11.780;2023-12-29T04:18:12;61.55;;;6.97;;
57826;SDS011;43656;57.746;11.780;2023-12-29T04:20:37;59.38;;;7.05;;
57826;SDS011;43656;57.746;11.780;2023-12-29T04:23:04;53.75;;;6.82;;
57826;SDS011;43656;57.746;11.780;2023-12-29T04:25:31;71.32;;;7.72;;
57826;SDS011;43656;57.746;11.780;2023-12-29T04:27:56;63.03;;;6.97;;
57826;SDS011;43656;57.746;11.780;2023-12-29T04:30:21;62.97;;;7.05;;
57826;SDS011;43656;57.746;11.780;2023-12-29T04:32:47;65.70;;;7.65;;
57826;SDS011;43656;57.746;11.780;2023-12-29T04:35:12;64.47;;;8.18;;
57826;SDS011;43656;57.746;11.780;2023-12-29T04:37:39;66.80;;;7.07;;
57826;SDS011;43656;57.746;11.780;2023-12-29T04:40:05;62.85;;;8.30;;
57826;SDS011;43656;57.746;11.780;2023-12-29T04:42:31;63.72;;;6.97;;
57826;SDS011;43656;57.746;11.780;2023-12-29T04:44:56;61.67;;;7.95;;
57826;SDS011;43656;57.746;11.780;2023-12-29T04:47:22;56.08;;;6.20;;
57826;SDS011;43656;57.746;11.780;2023-12-29T04:49:47;52.90;;;6.50;;
57826;SDS011;43656;57.746;11.780;2023-12-29T04:52:14;57.78;;;6.68;;
57826;SDS011;43656;57.746;11.780;2023-12-29T04:54:39;59.70;;;7.22;;
57826;SDS011;43656;57.746;11.780;2023-12-29T04:57:04;68.95;;;7.40;;
57826;SDS011;43656;57.746;11.780;2023-12-29T04:59:30;50.65;;;6.63;;
57826;SDS011;43656;57.746;11.780;2023-12-29T05:01:55;64.40;;;7.18;;
57826;SDS011;43656;57.746;11.780;2023-12-29T05:04:20;59.58;;;6.20;;
57826;SDS011;43656;57.746;11.780;2023-12-29T05:06:46;62.40;;;7.05;;
57826;SDS011;43656;57.746;11.780;2023-12-29T05:09:11;61.22;;;7.55;;
57826;SDS011;43656;57.746;11.780;2023-12-29T05:11:37;58.13;;;7.13;;
57826;SDS011;43656;57.746;11.780;2023-12-29T05:14:02;67.97;;;7.10;;
57826;SDS011;43656;57.746;11.780;2023-12-29T05:16:29;48.50;;;6.28;;
57826;SDS011;43656;57.746;11.780;2023-12-29T05:18:55;59.58;;;6.50;;
57826;SDS011;43656;57.746;11.780;2023-12-29T05:21:20;53.83;;;6.40;;
57826;SDS011;43656;57.746;11.780;2023-12-29T05:23:46;51.67;;;7.60;;
57826;SDS011;43656;57.746;11.780;2023-12-29T05:26:13;49.33;;;6.80;;
57826;SDS011;43656;57.746;11.780;2023-12-29T05:28:39;63.05;;;6.75;;
57826;SDS011;43656;57.746;11.780;2023-12-29T05:31:04;59.13;;;6.63;;
57826;SDS011;43656;57.746;11.780;2023-12-29T05:33:30;50.63;;;6.32;;
57826;SDS011;43656;57.746;11.780;2023-12-29T05:35:56;52.55;;;6.95;;
57826;SDS011;43656;57.746;11.780;2023-12-29T05:38:22;53.67;;;6.72;;
57826;SDS011;43656;57.746;11.780;2023-12-29T05:40:47;39.67;;;6.15;;
57826;SDS011;43656;57.746;11.780;2023-12-29T05:43:12;53.63;;;6.70;;
57826;SDS011;43656;57.746;11.780;2023-12-29T05:45:38;61.38;;;7.43;;
57826;SDS011;43656;57.746;11.780;2023-12-29T05:48:03;49.50;;;6.38;;
57826;SDS011;43656;57.746;11.780;2023-12-29T05:50:29;56.08;;;6.55;;
57826;SDS011;43656;57.746;11.780;2023-12-29T05:52:55;50.70;;;7.20;;
57826;SDS011;43656;57.746;11.780;2023-12-29T05:55:20;57.90;;;6.25;;
57826;SDS011;43656;57.746;11.780;2023-12-29T05:57:48;59.20;;;6.90;;
57826;SDS011;43656;57.746;11.780;2023-12-29T06:00:14;64.00;;;7.00;;
57826;SDS011;43656;57.746;11.780;2023-12-29T06:02:40;58.92;;;7.38;;
57826;SDS011;43656;57.746;11.780;2023-12-29T06:05:07;52.47;;;6.53;;
57826;SDS011;43656;57.746;11.780;2023-12-29T06:07:33;55.55;;;6.55;;
57826;SDS011;43656;57.746;11.780;2023-12-29T06:09:59;47.45;;;5.65;;
57826;SDS011;43656;57.746;11.780;2023-12-29T06:12:24;43.28;;;5.60;;
57826;SDS011;43656;57.746;11.780;2023-12-29T06:14:51;50.55;;;6.22;;
57826;SDS011;43656;57.746;11.780;2023-12-29T06:17:17;57.33;;;7.03;;
57826;SDS011;43656;57.746;11.780;2023-12-29T06:19:42;61.15;;;7.32;;
57826;SDS011;43656;57.746;11.780;2023-12-29T06:22:07;50.72;;;6.20;;
57826;SDS011;43656;57.746;11.780;2023-12-29T06:24:36;59.92;;;7.10;;
57826;SDS011;43656;57.746;11.780;2023-12-29T06:27:02;53.22;;;7.28;;
57826;SDS011;43656;57.746;11.780;2023-12-29T06:29:28;64.78;;;6.95;;
57826;SDS011;43656;57.746;11.780;2023-12-29T06:31:53;60.65;;;6.65;;
57826;SDS011;43656;57.746;11.780;2023-12-29T06:34:19;55.88;;;6.25;;
57826;SDS011;43656;57.746;11.780;2023-12-29T06:36:44;49.35;;;5.15;;
57826;SDS011;43656;57.746;11.780;2023-12-29T06:39:10;64.10;;;8.32;;
57826;SDS011;43656;57.746;11.780;2023-12-29T06:41:35;62.78;;;6.93;;
57826;SDS011;43656;57.746;11.780;2023-12-29T06:44:01;42.33;;;5.50;;
57826;SDS011;43656;57.746;11.780;2023-12-29T06:46:26;51.13;;;5.72;;
57826;SDS011;43656;57.746;11.780;2023-12-29T06:48:52;40.53;;;4.95;;
57826;SDS011;43656;57.746;11.780;2023-12-29T06:51:17;51.80;;;6.47;;
57826;SDS011;43656;57.746;11.780;2023-12-29T06:53:43;41.22;;;5.60;;
57826;SDS011;43656;57.746;11.780;2023-12-29T06:56:16;36.25;;;4.93;;
57826;SDS011;43656;57.746;11.780;2023-12-29T06:58:43;42.80;;;5.88;;
57826;SDS011;43656;57.746;11.780;2023-12-29T07:01:08;40.30;;;5.03;;
57826;SDS011;43656;57.746;11.780;2023-12-29T07:03:34;43.30;;;5.13;;
57826;SDS011;43656;57.746;11.780;2023-12-29T07:06:04;42.13;;;5.43;;
57826;SDS011;43656;57.746;11.780;2023-12-29T07:08:29;49.30;;;6.10;;
57826;SDS011;43656;57.746;11.780;2023-12-29T07:10:55;45.53;;;6.15;;
57826;SDS011;43656;57.746;11.780;2023-12-29T07:13:20;48.03;;;5.38;;
57826;SDS011;43656;57.746;11.780;2023-12-29T07:15:48;49.05;;;5.53;;
57826;SDS011;43656;57.746;11.780;2023-12-29T07:18:15;46.75;;;6.05;;
57826;SDS011;43656;57.746;11.780;2023-12-29T07:20:41;51.60;;;5.75;;
57826;SDS011;43656;57.746;11.780;2023-12-29T07:23:07;44.53;;;5.85;;
57826;SDS011;43656;57.746;11.780;2023-12-29T07:25:32;45.78;;;5.00;;
57826;SDS011;43656;57.746;11.780;2023-12-29T07:27:58;50.53;;;5.57;;
57826;SDS011;43656;57.746;11.780;2023-12-29T07:30:23;48.97;;;5.25;;
57826;SDS011;43656;57.746;11.780;2023-12-29T07:32:49;46.60;;;5.57;;
57826;SDS011;43656;57.746;11.780;2023-12-29T07:35:14;41.58;;;4.70;;
57826;SDS011;43656;57.746;11.780;2023-12-29T07:37:42;37.08;;;5.60;;
57826;SDS011;43656;57.746;11.780;2023-12-29T07:40:13;46.45;;;5.88;;
57826;SDS011;43656;57.746;11.780;2023-12-29T07:42:40;44.55;;;6.43;;
57826;SDS011;43656;57.746;11.780;2023-12-29T07:45:05;48.75;;;5.60;;
57826;SDS011;43656;57.746;11.780;2023-12-29T07:47:31;38.22;;;5.55;;
57826;SDS011;43656;57.746;11.780;2023-12-29T07:49:57;39.10;;;6.03;;
57826;SDS011;43656;57.746;11.780;2023-12-29T07:52:23;50.13;;;5.43;;
57826;SDS011;43656;57.746;11.780;2023-12-29T07:54:48;37.38;;;5.72;;
57826;SDS011;43656;57.746;11.780;2023-12-29T07:57:14;47.10;;;6.03;;
57826;SDS011;43656;57.746;11.780;2023-12-29T07:59:40;46.72;;;5.18;;
57826;SDS011;43656;57.746;11.780;2023-12-29T08:02:06;47.80;;;6.40;;
57826;SDS011;43656;57.746;11.780;2023-12-29T08:04:31;37.90;;;5.82;;
57826;SDS011;43656;57.746;11.780;2023-12-29T08:06:57;51.40;;;6.63;;
57826;SDS011;43656;57.746;11.780;2023-12-29T08:09:23;49.20;;;5.97;;
57826;SDS011;43656;57.746;11.780;2023-12-29T08:11:48;46.13;;;5.88;;
57826;SDS011;43656;57.746;11.780;2023-12-29T08:14:14;49.78;;;5.93;;
57826;SDS011;43656;57.746;11.780;2023-12-29T08:16:40;48.58;;;6.47;;
57826;SDS011;43656;57.746;11.780;2023-12-29T08:19:06;37.28;;;4.93;;
57826;SDS011;43656;57.746;11.780;2023-12-29T08:21:32;45.53;;;5.72;;
57826;SDS011;43656;57.746;11.780;2023-12-29T08:23:58;39.00;;;4.50;;
57826;SDS011;43656;57.746;11.780;2023-12-29T08:26:24;41.65;;;5.05;;
57826;SDS011;43656;57.746;11.780;2023-12-29T08:28:49;51.25;;;6.20;;
57826;SDS011;43656;57.746;11.780;2023-12-29T08:31:15;40.85;;;5.43;;
57826;SDS011;43656;57.746;11.780;2023-12-29T08:33:41;47.28;;;5.40;;
57826;SDS011;43656;57.746;11.780;2023-12-29T08:36:06;43.92;;;5.90;;
57826;SDS011;43656;57.746;11.780;2023-12-29T08:38:32;49.38;;;6.13;;
57826;SDS011;43656;57.746;11.780;2023-12-29T08:40:57;46.45;;;5.50;;
57826;SDS011;43656;57.746;11.780;2023-12-29T08:43:23;41.65;;;5.57;;
57826;SDS011;43656;57.746;11.780;2023-12-29T08:45:49;51.45;;;6.40;;
57826;SDS011;43656;57.746;11.780;2023-12-29T08:48:16;50.97;;;7.20;;
57826;SDS011;43656;57.746;11.780;2023-12-29T08:50:41;42.70;;;5.40;;
57826;SDS011;43656;57.746;11.780;2023-12-29T08:53:08;48.08;;;5.65;;
57826;SDS011;43656;57.746;11.780;2023-12-29T08:55:34;39.28;;;5.15;;
57826;SDS011;43656;57.746;11.780;2023-12-29T08:57:59;42.08;;;5.47;;
57826;SDS011;43656;57.746;11.780;2023-12-29T09:00:25;46.50;;;5.80;;
57826;SDS011;43656;57.746;11.780;2023-12-29T09:02:50;49.33;;;5.97;;
57826;SDS011;43656;57.746;11.780;2023-12-29T09:05:16;42.30;;;5.10;;
57826;SDS011;43656;57.746;11.780;2023-12-29T09:07:41;45.80;;;5.30;;
57826;SDS011;43656;57.746;11.780;2023-12-29T09:10:08;37.30;;;4.93;;
57826;SDS011;43656;57.746;11.780;2023-12-29T09:12:36;45.05;;;5.85;;
57826;SDS011;43656;57.746;11.780;2023-12-29T09:15:03;32.22;;;4.68;;
57826;SDS011;43656;57.746;11.780;2023-12-29T09:17:29;42.08;;;5.15;;
57826;SDS011;43656;57.746;11.780;2023-12-29T09:19:55;42.50;;;5.00;;
57826;SDS011;43656;57.746;11.780;2023-12-29T09:22:21;36.47;;;4.65;;
57826;SDS011;43656;57.746;11.780;2023-12-29T09:24:47;43.95;;;5.50;;
57826;SDS011;43656;57.746;11.780;2023-12-29T09:27:12;25.77;;;4.25;;
57826;SDS011;43656;57.746;11.780;2023-12-29T09:29:38;33.33;;;4.70;;
57826;SDS011;43656;57.746;11.780;2023-12-29T09:32:05;29.02;;;4.55;;
57826;SDS011;43656;57.746;11.780;2023-12-29T09:34:31;47.88;;;6.50;;
57826;SDS011;43656;57.746;11.780;2023-12-29T09:36:56;41.65;;;5.22;;
57826;SDS011;43656;57.746;11.780;2023-12-29T09:39:22;39.92;;;4.85;;
57826;SDS011;43656;57.746;11.780;2023-12-29T09:41:50;32.63;;;3.92;;
57826;SDS011;43656;57.746;11.780;2023-12-29T09:44:19;36.38;;;5.63;;
57826;SDS011;43656;57.746;11.780;2023-12-29T09:46:49;30.98;;;4.25;;
57826;SDS011;43656;57.746;11.780;2023-12-29T09:49:16;31.52;;;4.00;;
57826;SDS011;43656;57.746;11.780;2023-12-29T09:51:45;31.80;;;4.63;;
57826;SDS011;43656;57.746;11.780;2023-12-29T09:54:11;39.40;;;4.85;;
57826;SDS011;43656;57.746;11.780;2023-12-29T09:56:38;30.15;;;3.40;;
57826;SDS011;43656;57.746;11.780;2023-12-29T09:59:04;33.42;;;4.22;;
57826;SDS011;43656;57.746;11.780;2023-12-29T10:01:31;29.77;;;4.15;;
57826;SDS011;43656;57.746;11.780;2023-12-29T10:03:58;31.88;;;4.90;;
57826;SDS011;43656;57.746;11.780;2023-12-29T10:06:24;26.58;;;3.97;;
57826;SDS011;43656;57.746;11.780;2023-12-29T10:08:50;31.73;;;4.45;;
57826;SDS011;43656;57.746;11.780;2023-12-29T10:11:22;35.05;;;4.15;;
57826;SDS011;43656;57.746;11.780;2023-12-29T10:13:51;30.97;;;4.03;;
57826;SDS011;43656;57.746;11.780;2023-12-29T10:16:24;29.15;;;4.03;;
57826;SDS011;43656;57.746;11.780;2023-12-29T10:19:14;32.50;;;4.45;;
57826;SDS011;43656;57.746;11.780;2023-12-29T10:21:52;26.98;;;3.95;;
57826;SDS011;43656;57.746;11.780;2023-12-29T10:24:27;32.28;;;3.35;;
57826;SDS011;43656;57.746;11.780;2023-12-29T10:26:53;31.35;;;4.60;;
57826;SDS011;43656;57.746;11.780;2023-12-29T10:29:20;34.70;;;4.25;;
57826;SDS011;43656;57.746;11.780;2023-12-29T10:31:46;32.55;;;4.75;;
57826;SDS011;43656;57.746;11.780;2023-12-29T10:34:21;30.15;;;4.30;;
57826;SDS011;43656;57.746;11.780;2023-12-29T10:37:00;32.30;;;4.38;;
57826;SDS011;43656;57.746;11.780;2023-12-29T10:39:34;34.45;;;4.63;;
57826;SDS011;43656;57.746;11.780;2023-12-29T10:42:04;24.75;;;3.50;;
57826;SDS011;43656;57.746;11.780;2023-12-29T10:44:32;33.05;;;4.32;;
57826;SDS011;43656;57.746;11.780;2023-12-29T10:46:58;34.25;;;5.07;;
57826;SDS011;43656;57.746;11.780;2023-12-29T10:49:23;32.78;;;4.13;;
57826;SDS011;43656;57.746;11.780;2023-12-29T10:51:49;30.77;;;4.30;;
57826;SDS011;43656;57.746;11.780;2023-12-29T10:54:21;37.25;;;4.82;;
57826;SDS011;43656;57.746;11.780;2023-12-29T10:57:02;32.63;;;4.88;;
57826;SDS011;43656;57.746;11.780;2023-12-29T10:59:28;33.65;;;4.07;;
57826;SDS011;43656;57.746;11.780;2023-12-29T11:01:55;32.03;;;4.47;;
57826;SDS011;43656;57.746;11.780;2023-12-29T11:04:24;24.63;;;4.10;;
57826;SDS011;43656;57.746;11.780;2023-12-29T11:06:50;24.55;;;3.75;;
57826;SDS011;43656;57.746;11.780;2023-12-29T11:09:28;25.30;;;4.10;;
57826;SDS011;43656;57.746;11.780;2023-12-29T11:12:02;23.65;;;3.58;;
57826;SDS011;43656;57.746;11.780;2023-12-29T11:14:28;26.58;;;4.20;;
57826;SDS011;43656;57.746;11.780;2023-12-29T11:16:54;30.80;;;4.13;;
57826;SDS011;43656;57.746;11.780;2023-12-29T11:19:21;24.15;;;3.50;;
57826;SDS011;43656;57.746;11.780;2023-12-29T11:21:48;28.25;;;4.55;;
57826;SDS011;43656;57.746;11.780;2023-12-29T11:24:19;30.25;;;3.95;;
57826;SDS011;43656;57.746;11.780;2023-12-29T11:26:44;25.67;;;3.95;;
57826;SDS011;43656;57.746;11.780;2023-12-29T11:29:13;27.55;;;3.72;;
57826;SDS011;43656;57.746;11.780;2023-12-29T11:31:40;38.13;;;4.78;;
57826;SDS011;43656;57.746;11.780;2023-12-29T11:34:11;23.95;;;4.85;;
57826;SDS011;43656;57.746;11.780;2023-12-29T11:36:45;26.60;;;3.75;;
57826;SDS011;43656;57.746;11.780;2023-12-29T11:41:55;20.15;;;3.20;;
57826;SDS011;43656;57.746;11.780;2023-12-29T11:44:31;20.05;;;3.38;;
57826;SDS011;43656;57.746;11.780;2023-12-29T11:47:01;22.13;;;3.42;;
57826;SDS011;43656;57.746;11.780;2023-12-29T11:49:27;23.38;;;3.42;;
57826;SDS011;43656;57.746;11.780;2023-12-29T11:52:34;23.15;;;3.22;;
57826;SDS011;43656;57.746;11.780;2023-12-29T11:55:09;25.58;;;3.85;;
57826;SDS011;43656;57.746;11.780;2023-12-29T11:57:36;19.65;;;3.17;;
57826;SDS011;43656;57.746;11.780;2023-12-29T12:00:02;20.38;;;2.92;;
57826;SDS011;43656;57.746;11.780;2023-12-29T12:02:30;16.92;;;2.42;;
57826;SDS011;43656;57.746;11.780;2023-12-29T12:04:56;20.67;;;3.50;;
57826;SDS011;43656;57.746;11.780;2023-12-29T12:12:45;22.40;;;3.28;;
57826;SDS011;43656;57.746;11.780;2023-12-29T12:17:51;19.20;;;3.47;;
57826;SDS011;43656;57.746;11.780;2023-12-29T12:20:17;19.48;;;3.20;;
57826;SDS011;43656;57.746;11.780;2023-12-29T12:22:42;16.33;;;2.38;;
57826;SDS011;43656;57.746;11.780;2023-12-29T12:25:09;17.42;;;2.78;;
57826;SDS011;43656;57.746;11.780;2023-12-29T12:27:37;20.33;;;3.10;;
57826;SDS011;43656;57.746;11.780;2023-12-29T12:30:03;16.33;;;3.00;;
57826;SDS011;43656;57.746;11.780;2023-12-29T12:32:29;14.98;;;2.50;;
57826;SDS011;43656;57.746;11.780;2023-12-29T12:34:55;13.90;;;2.28;;
57826;SDS011;43656;57.746;11.780;2023-12-29T12:37:22;18.50;;;2.95;;
57826;SDS011;43656;57.746;11.780;2023-12-29T12:39:48;13.43;;;2.35;;
57826;SDS011;43656;57.746;11.780;2023-12-29T12:42:15;15.02;;;3.22;;
57826;SDS011;43656;57.746;11.780;2023-12-29T12:44:42;20.77;;;2.53;;
57826;SDS011;43656;57.746;11.780;2023-12-29T12:47:16;16.03;;;2.37;;
57826;SDS011;43656;57.746;11.780;2023-12-29T12:49:44;13.80;;;2.20;;
57826;SDS011;43656;57.746;11.780;2023-12-29T12:52:10;18.48;;;2.65;;
57826;SDS011;43656;57.746;11.780;2023-12-29T12:54:36;17.25;;;2.55;;
57826;SDS011;43656;57.746;11.780;2023-12-29T12:57:01;18.77;;;2.90;;
57826;SDS011;43656;57.746;11.780;2023-12-29T12:59:28;16.02;;;2.33;;
57826;SDS011;43656;57.746;11.780;2023-12-29T13:01:54;24.13;;;2.95;;
57826;SDS011;43656;57.746;11.780;2023-12-29T13:04:19;20.42;;;3.40;;
57826;SDS011;43656;57.746;11.780;2023-12-29T13:06:45;18.83;;;3.10;;
57826;SDS011;43656;57.746;11.780;2023-12-29T13:09:11;16.95;;;3.00;;
57826;SDS011;43656;57.746;11.780;2023-12-29T13:11:37;19.58;;;3.28;;
57826;SDS011;43656;57.746;11.780;2023-12-29T13:14:03;21.80;;;4.03;;
57826;SDS011;43656;57.746;11.780;2023-12-29T13:18:56;24.65;;;3.45;;
57826;SDS011;43656;57.746;11.780;2023-12-29T13:21:22;22.50;;;3.45;;
57826;SDS011;43656;57.746;11.780;2023-12-29T13:23:47;24.55;;;3.50;;
57826;SDS011;43656;57.746;11.780;2023-12-29T13:26:13;23.02;;;3.58;;
57826;SDS011;43656;57.746;11.780;2023-12-29T13:28:39;28.13;;;3.83;;
57826;SDS011;43656;57.746;11.780;2023-12-29T13:31:05;21.45;;;3.65;;
57826;SDS011;43656;57.746;11.780;2023-12-29T13:33:36;25.90;;;4.07;;
57826;SDS011;43656;57.746;11.780;2023-12-29T13:38:58;19.02;;;2.85;;
57826;SDS011;43656;57.746;11.780;2023-12-29T13:41:31;22.00;;;4.05;;
57826;SDS011;43656;57.746;11.780;2023-12-29T13:44:00;27.77;;;3.30;;
57826;SDS011;43656;57.746;11.780;2023-12-29T13:46:27;19.67;;;3.42;;
57826;SDS011;43656;57.746;11.780;2023-12-29T13:48:53;23.33;;;3.20;;
57826;SDS011;43656;57.746;11.780;2023-12-29T13:51:26;22.67;;;3.70;;
57826;SDS011;43656;57.746;11.780;2023-12-29T13:54:01;24.55;;;3.15;;
57826;SDS011;43656;57.746;11.780;2023-12-29T13:56:28;18.58;;;3.40;;
57826;SDS011;43656;57.746;11.780;2023-12-29T13:58:53;17.48;;;2.97;;
57826;SDS011;43656;57.746;11.780;2023-12-29T14:01:19;20.98;;;3.33;;
57826;SDS011;43656;57.746;11.780;2023-12-29T14:06:26;19.08;;;3.15;;
57826;SDS011;43656;57.746;11.780;2023-12-29T14:08:55;25.20;;;4.03;;
57826;SDS011;43656;57.746;11.780;2023-12-29T14:11:20;18.02;;;2.60;;
57826;SDS011;43656;57.746;11.780;2023-12-29T14:13:46;18.30;;;2.58;;
57826;SDS011;43656;57.746;11.780;2023-12-29T14:16:24;19.20;;;2.90;;
57826;SDS011;43656;57.746;11.780;2023-12-29T14:18:53;22.10;;;3.13;;
57826;SDS011;43656;57.746;11.780;2023-12-29T14:21:29;23.52;;;3.17;;
57826;SDS011;43656;57.746;11.780;2023-12-29T14:24:13;16.25;;;2.72;;
57826;SDS011;43656;57.746;11.780;2023-12-29T14:26:53;24.08;;;2.95;;
57826;SDS011;43656;57.746;11.780;2023-12-29T14:29:18;19.02;;;3.42;;
57826;SDS011;43656;57.746;11.780;2023-12-29T14:31:48;29.73;;;3.40;;
57826;SDS011;43656;57.746;11.780;2023-12-29T14:34:17;20.85;;;2.35;;
57826;SDS011;43656;57.746;11.780;2023-12-29T14:36:44;20.80;;;2.72;;
57826;SDS011;43656;57.746;11.780;2023-12-29T14:39:09;26.17;;;3.05;;